Terminal Aerodrome Forecast
Issued by NWS

Home | Current Version | Previous Version | Text Only | Print | Product List | Glossary On
Versions: 1 2 3 4 5 6 7 8 9 10
000
FTUS41 KCAR 272320
TAFHUL
TAF
KHUL 272320Z 2800/2824 VRB03KT P6SM BKN100
     FM280400 VRB05KT P6SM OVC040
     FM280630 15005KT 2SM -SN BR OVC020
     FM280930 18009KT 3SM -RASN BR OVC006
     FM281100 19009KT 6SM -SHRA OVC009
     FM281300 24011KT P6SM -SHRA OVC015
     FM281600 27014G22KT P6SM OVC030=

USA.gov is the U.S. government's official web portal to all federal, state and local government web resources and services.